Time;durP1;ratioP1;P1;durP2;ratioP2;P2;SDS_P1;SDS_P2;PMS_P1;PMS_P2;Temp;Humidity;BMP_temperature;BMP_pressure;BME280_temperature;BME280_humidity;BME280_pressure;Samples;Min_cycle;Max_cycle;Signal;HPM_P1;HPM_P2
2023/09/11 00:01:09;;;;;;;;;;;20.30;99.90;;;;;;15635846;22;19998;-82
2023/09/11 00:07:11;;;;;;;;;;;20.30;99.90;;;;;;15594343;22;20422;-82
2023/09/11 00:13:12;;;;;;;;;;;20.20;99.90;;;;;;15634299;22;19922;-82
2023/09/11 00:19:14;;;;;;;;;;;20.10;99.90;;;;;;15600377;22;19926;-82
2023/09/11 00:25:16;;;;;;;;;;;20.10;99.90;;;;;;15631883;22;19927;-82
2023/09/11 00:31:18;;;;;;;;;;;20.10;99.90;;;;;;15646362;22;20182;-82
2023/09/11 00:37:20;;;;;;;;;;;20.00;99.90;;;;;;15704680;22;19923;-82
2023/09/11 00:43:21;;;;;;;;;;;19.90;99.90;;;;;;15659331;22;20213;-82
2023/09/11 00:49:23;;;;;;;;;;;19.90;99.90;;;;;;15635942;22;19923;-82
2023/09/11 00:55:26;;;;;;;;;;;19.80;99.90;;;;;;15594236;22;19923;-81
2023/09/11 01:01:28;;;;;;;;;;;19.80;99.90;;;;;;15604331;22;19930;-82
2023/09/11 01:07:31;;;;;;;;;;;19.50;99.90;;;;;;15608637;22;19923;-82
2023/09/11 01:13:33;;;;;;;;;;;19.40;99.90;;;;;;15635688;22;19930;-82
2023/09/11 01:19:35;;;;;;;;;;;19.50;99.90;;;;;;15604343;22;19923;-82
2023/09/11 01:25:58;;;;;;;;;;;19.50;99.90;;;;;;15608685;22;19950;-82
2023/09/11 01:32:02;;;;;;;;;;;19.50;99.90;;;;;;15606490;22;19962;-82
2023/09/11 01:38:04;;;;;;;;;;;19.50;99.90;;;;;;15606802;22;19962;-82
2023/09/11 01:44:21;;;;;;;;;;;19.50;99.90;;;;;;15606293;22;19922;-82
2023/09/11 01:50:23;;;;;;;;;;;19.50;99.90;;;;;;15607232;22;19923;-81
2023/09/11 01:56:26;;;;;;;;;;;19.50;99.90;;;;;;15624100;22;20017;-82
2023/09/11 02:02:29;;;;;;;;;;;19.20;99.90;;;;;;15603313;22;20001;-82
2023/09/11 02:08:31;;;;;;;;;;;19.10;99.90;;;;;;15604463;22;19945;-81
2023/09/11 02:14:33;;;;;;;;;;;19.10;99.90;;;;;;15584322;22;20371;-82
2023/09/11 02:20:35;;;;;;;;;;;19.10;99.90;;;;;;15609717;22;19949;-82
2023/09/11 02:26:37;;;;;;;;;;;19.20;99.90;;;;;;15630916;22;19930;-82
2023/09/11 02:32:39;;;;;;;;;;;19.10;99.90;;;;;;15608895;22;19937;-81
2023/09/11 02:38:41;;;;;;;;;;;19.00;99.90;;;;;;15595937;22;19942;-82
2023/09/11 02:44:43;;;;;;;;;;;18.90;99.90;;;;;;15600165;22;19923;-81
2023/09/11 02:50:47;;;;;;;;;;;18.90;99.90;;;;;;15611351;22;19997;-82
2023/09/11 02:56:49;;;;;;;;;;;19.00;99.90;;;;;;15632391;22;19980;-82
2023/09/11 03:02:51;;;;;;;;;;;19.00;99.90;;;;;;15610760;22;19923;-81
2023/09/11 03:08:52;;;;;;;;;;;18.90;99.90;;;;;;15638841;22;19962;-82
2023/09/11 03:14:54;;;;;;;;;;;18.90;99.90;;;;;;15607246;22;19927;-82
2023/09/11 03:20:56;;;;;;;;;;;18.90;99.90;;;;;;15613753;22;19930;-82
2023/09/11 03:26:58;;;;;;;;;;;18.80;99.90;;;;;;15605852;22;19930;-82
2023/09/11 03:33:00;;;;;;;;;;;18.80;99.90;;;;;;15604734;22;20005;-82
2023/09/11 03:39:02;;;;;;;;;;;18.70;99.90;;;;;;15596884;22;20295;-81
2023/09/11 03:45:05;;;;;;;;;;;18.70;99.90;;;;;;15604287;22;19927;-82
2023/09/11 03:51:07;;;;;;;;;;;18.70;99.90;;;;;;15593317;22;19919;-82
2023/09/11 03:57:09;;;;;;;;;;;18.70;99.90;;;;;;15596382;22;19923;-82
2023/09/11 04:03:11;;;;;;;;;;;18.70;99.90;;;;;;15631172;22;20245;-82
2023/09/11 04:09:13;;;;;;;;;;;18.60;99.90;;;;;;15635541;22;19930;-82
2023/09/11 04:15:15;;;;;;;;;;;18.50;99.90;;;;;;15633172;22;19927;-81
2023/09/11 04:21:17;;;;;;;;;;;18.20;99.90;;;;;;15603331;22;19927;-82
2023/09/11 04:27:19;;;;;;;;;;;18.10;99.90;;;;;;15609384;22;19923;-82
2023/09/11 04:33:21;;;;;;;;;;;18.20;99.90;;;;;;15634652;22;20240;-82
2023/09/11 04:39:23;;;;;;;;;;;18.10;99.90;;;;;;15603212;22;20252;-81
2023/09/11 04:45:26;;;;;;;;;;;18.10;99.90;;;;;;15602959;22;20094;-82
2023/09/11 04:51:27;;;;;;;;;;;18.20;99.90;;;;;;15633613;22;19923;-81
2023/09/11 04:57:29;;;;;;;;;;;18.20;99.90;;;;;;15597481;22;19922;-81
2023/09/11 05:03:31;;;;;;;;;;;18.10;99.90;;;;;;15603883;22;20025;-81
2023/09/11 05:09:33;;;;;;;;;;;18.10;99.90;;;;;;15621907;22;19919;-81
2023/09/11 05:15:36;;;;;;;;;;;18.30;99.90;;;;;;15599676;22;20264;-83
2023/09/11 05:21:37;;;;;;;;;;;18.10;99.90;;;;;;15602586;22;20268;-82
2023/09/11 05:27:44;;;;;;;;;;;18.10;99.90;;;;;;15603758;22;20495;-82
2023/09/11 05:33:46;;;;;;;;;;;18.10;99.90;;;;;;15608025;22;19922;-81
2023/09/11 05:39:48;;;;;;;;;;;18.20;99.90;;;;;;15604829;22;19930;-81
2023/09/11 05:45:53;;;;;;;;;;;18.30;99.90;;;;;;15606253;22;19918;-81
2023/09/11 05:51:55;;;;;;;;;;;18.30;99.90;;;;;;15602014;22;19978;-81
2023/09/11 05:57:57;;;;;;;;;;;18.50;99.90;;;;;;15602430;22;19923;-81
2023/09/11 06:03:59;;;;;;;;;;;18.60;99.90;;;;;;15600721;22;19930;-81
2023/09/11 06:10:01;;;;;;;;;;;18.60;99.90;;;;;;15633672;22;19929;-81
2023/09/11 06:16:03;;;;;;;;;;;18.80;99.90;;;;;;15622366;22;19923;-81
2023/09/11 06:22:05;;;;;;;;;;;18.90;99.90;;;;;;15596267;22;20352;-82
2023/09/11 06:28:07;;;;;;;;;;;19.00;99.90;;;;;;15608787;22;19919;-82
2023/09/11 06:34:08;;;;;;;;;;;19.00;99.90;;;;;;15607021;22;19922;-82
2023/09/11 06:40:11;;;;;;;;;;;19.10;99.90;;;;;;15639472;22;19969;-82
2023/09/11 06:46:13;;;;;;;;;;;19.30;99.90;;;;;;15602000;22;20475;-82
2023/09/11 06:52:16;;;;;;;;;;;19.20;99.90;;;;;;15608991;22;20415;-82
2023/09/11 06:58:18;;;;;;;;;;;19.40;99.90;;;;;;15610171;22;20348;-82
2023/09/11 07:04:20;;;;;;;;;;;19.60;99.90;;;;;;15633889;22;19919;-82
2023/09/11 07:10:22;;;;;;;;;;;19.60;99.90;;;;;;15620458;22;19949;-84
2023/09/11 07:16:41;;;;;;;;;;;19.60;99.90;;;;;;15624148;22;19922;-84
2023/09/11 07:22:43;;;;;;;;;;;19.60;99.90;;;;;;15609903;22;20260;-83
2023/09/11 07:28:52;;;;;;;;;;;19.80;99.90;;;;;;15603279;22;20198;-83
2023/09/11 07:34:54;;;;;;;;;;;19.90;99.90;;;;;;15629658;22;20048;-83
2023/09/11 07:40:56;;;;;;;;;;;20.10;99.90;;;;;;15580682;22;19973;-84
2023/09/11 07:46:58;;;;;;;;;;;20.20;99.90;;;;;;15606897;22;19923;-84
2023/09/11 07:53:00;;;;;;;;;;;20.40;99.90;;;;;;15608091;22;19930;-84
2023/09/11 07:59:02;;;;;;;;;;;20.40;99.90;;;;;;15601685;22;19930;-84
2023/09/11 08:05:04;;;;;;;;;;;20.60;99.90;;;;;;15632268;22;19923;-84
2023/09/11 08:11:12;;;;;;;;;;;20.70;99.90;;;;;;15635272;22;19988;-84
2023/09/11 08:17:15;;;;;;;;;;;21.00;99.90;;;;;;15631003;22;19923;-84
2023/09/11 08:23:18;;;;;;;;;;;21.30;99.90;;;;;;15612086;22;19934;-84
2023/09/11 08:29:20;;;;;;;;;;;21.50;99.90;;;;;;15635028;22;19930;-84
2023/09/11 08:35:22;;;;;;;;;;;21.70;99.90;;;;;;15634789;22;20001;-83
2023/09/11 08:41:25;;;;;;;;;;;22.00;99.90;;;;;;15609507;22;19949;-83
2023/09/11 08:47:29;;;;;;;;;;;22.30;99.90;;;;;;15601462;22;19923;-82
2023/09/11 08:53:32;;;;;;;;;;;22.80;99.90;;;;;;15598092;22;20248;-83
2023/09/11 08:59:36;;;;;;;;;;;23.20;99.90;;;;;;15609939;22;19938;-82
2023/09/11 09:05:39;;;;;;;;;;;23.70;99.90;;;;;;15638224;22;20349;-82
2023/09/11 09:11:47;;;;;;;;;;;24.30;99.90;;;;;;15607714;22;19927;-82
2023/09/11 09:17:50;;;;;;;;;;;24.70;99.90;;;;;;15610724;22;20376;-82
2023/09/11 09:23:52;;;;;;;;;;;25.10;99.90;;;;;;15611600;22;19926;-82
2023/09/11 09:29:54;;;;;;;;;;;25.40;99.90;;;;;;15609400;22;19923;-82
2023/09/11 09:35:56;;;;;;;;;;;25.70;99.90;;;;;;15600183;22;19926;-84
2023/09/11 09:42:04;;;;;;;;;;;26.00;99.90;;;;;;15600331;22;19998;-83
2023/09/11 09:48:08;;;;;;;;;;;26.30;99.90;;;;;;15609383;22;19947;-82
2023/09/11 09:54:10;;;;;;;;;;;26.60;99.90;;;;;;15605834;22;19973;-83
2023/09/11 10:00:15;;;;;;;;;;;26.70;99.90;;;;;;15608357;22;19918;-83
2023/09/11 10:06:21;;;;;;;;;;;27.00;99.90;;;;;;15610640;22;19963;-84
2023/09/11 10:12:23;;;;;;;;;;;27.20;99.90;;;;;;15609887;22;20008;-84
2023/09/11 10:18:26;;;;;;;;;;;27.40;99.90;;;;;;15606213;22;19929;-84
2023/09/11 10:24:28;;;;;;;;;;;27.60;99.90;;;;;;15608256;22;19923;-84
2023/09/11 10:30:37;;;;;;;;;;;27.60;99.90;;;;;;15640441;22;20264;-84
2023/09/11 10:36:42;;;;;;;;;;;27.60;99.90;;;;;;15609209;22;19930;-83
2023/09/11 10:42:44;;;;;;;;;;;27.80;99.90;;;;;;15607424;22;20572;-83
2023/09/11 10:48:46;;;;;;;;;;;27.90;99.90;;;;;;15610143;22;19926;-82
2023/09/11 10:54:49;;;;;;;;;;;28.10;99.90;;;;;;15603524;22;19923;-84
2023/09/11 11:00:53;;;;;;;;;;;28.40;99.90;;;;;;15610401;22;19944;-84
2023/09/11 11:06:56;;;;;;;;;;;28.70;99.90;;;;;;15638050;22;20325;-85
2023/09/11 11:13:04;;;;;;;;;;;28.80;99.90;;;;;;15610570;22;19923;-83
2023/09/11 11:19:06;;;;;;;;;;;28.90;99.90;;;;;;15608255;22;19923;-83
2023/09/11 11:25:10;;;;;;;;;;;29.10;99.90;;;;;;15605702;22;20420;-83
2023/09/11 11:31:17;;;;;;;;;;;28.90;99.90;;;;;;15635415;22;19923;-86
2023/09/11 11:37:21;;;;;;;;;;;28.90;99.90;;;;;;15626833;22;20005;-84
2023/09/11 11:43:24;;;;;;;;;;;29.20;99.90;;;;;;15624186;22;19923;-84
2023/09/11 11:49:27;;;;;;;;;;;29.30;99.90;;;;;;15612271;22;19931;-82
2023/09/11 11:55:29;;;;;;;;;;;29.50;99.90;;;;;;15606094;22;20541;-84
2023/09/11 12:01:34;;;;;;;;;;;29.60;99.90;;;;;;15611998;22;19923;-84
2023/09/11 12:07:37;;;;;;;;;;;29.70;99.90;;;;;;15612740;22;19949;-83
2023/09/11 12:13:39;;;;;;;;;;;29.80;99.90;;;;;;15648094;22;19918;-85
2023/09/11 12:19:50;;;;;;;;;;;29.90;99.90;;;;;;15654890;22;19938;-85
2023/09/11 12:25:53;;;;;;;;;;;29.90;99.90;;;;;;15679081;22;19926;-85
2023/09/11 12:31:55;;;;;;;;;;;30.00;99.90;;;;;;15671682;22;19946;-85
2023/09/11 12:37:57;;;;;;;;;;;30.20;99.90;;;;;;15643248;22;19927;-85
2023/09/11 12:43:59;;;;;;;;;;;30.20;99.90;;;;;;15625254;22;19937;-82
2023/09/11 12:50:01;;;;;;;;;;;30.20;99.90;;;;;;15615261;22;19922;-82
2023/09/11 12:56:09;;;;;;;;;;;30.10;99.90;;;;;;15609663;22;19923;-84
2023/09/11 13:02:11;;;;;;;;;;;30.20;99.90;;;;;;15613069;22;20359;-84
2023/09/11 13:08:17;;;;;;;;;;;30.20;99.90;;;;;;15602348;22;19923;-84
2023/09/11 13:14:19;;;;;;;;;;;30.20;99.90;;;;;;15607258;22;19919;-83
2023/09/11 13:20:21;;;;;;;;;;;30.20;99.90;;;;;;15611273;22;19930;-83
2023/09/11 13:26:24;;;;;;;;;;;30.10;99.90;;;;;;15609830;22;20235;-83
2023/09/11 13:32:26;;;;;;;;;;;30.30;99.90;;;;;;15609670;22;20450;-83
2023/09/11 13:38:28;;;;;;;;;;;30.30;99.90;;;;;;15610144;22;20162;-83
2023/09/11 13:44:30;;;;;;;;;;;30.00;99.90;;;;;;15644554;22;19923;-83
2023/09/11 13:50:32;;;;;;;;;;;30.00;99.90;;;;;;15674408;22;19978;-84
2023/09/11 13:56:34;;;;;;;;;;;29.60;99.90;;;;;;15674584;22;19922;-83
2023/09/11 14:02:36;;;;;;;;;;;29.50;99.90;;;;;;15660227;22;20263;-82
2023/09/11 14:08:38;;;;;;;;;;;29.50;99.90;;;;;;15623694;22;19930;-83
2023/09/11 14:14:41;;;;;;;;;;;29.40;99.90;;;;;;15616425;22;19923;-85
2023/09/11 14:20:43;;;;;;;;;;;29.20;99.90;;;;;;15609199;22;19934;-84
2023/09/11 14:26:46;;;;;;;;;;;29.20;99.90;;;;;;15608118;22;19923;-84
2023/09/11 14:32:48;;;;;;;;;;;29.10;99.90;;;;;;15599989;22;19927;-86
2023/09/11 14:38:51;;;;;;;;;;;29.00;99.90;;;;;;15606651;22;19923;-82
2023/09/11 14:44:53;;;;;;;;;;;29.10;99.90;;;;;;15607330;22;19930;-81
2023/09/11 14:50:55;;;;;;;;;;;29.20;99.90;;;;;;15639524;22;19922;-81
2023/09/11 14:56:57;;;;;;;;;;;29.40;99.90;;;;;;15610236;22;19927;-84
2023/09/11 15:03:04;;;;;;;;;;;29.50;99.90;;;;;;15614338;22;19927;-81
2023/09/11 15:09:06;;;;;;;;;;;29.60;99.90;;;;;;15608486;22;19923;-84
2023/09/11 15:15:08;;;;;;;;;;;29.70;99.90;;;;;;15610042;22;19923;-86
2023/09/11 15:21:12;;;;;;;;;;;29.50;99.90;;;;;;15612842;22;20364;-85
2023/09/11 15:27:14;;;;;;;;;;;29.80;99.90;;;;;;15613339;22;20558;-85
2023/09/11 15:33:17;;;;;;;;;;;29.90;99.90;;;;;;15614983;22;19922;-83
2023/09/11 15:39:19;;;;;;;;;;;29.90;99.90;;;;;;15615383;22;19919;-85
2023/09/11 15:45:21;;;;;;;;;;;29.80;99.90;;;;;;15599976;22;19929;-85
2023/09/11 15:51:23;;;;;;;;;;;29.70;99.90;;;;;;15604568;22;20340;-84
2023/09/11 15:57:25;;;;;;;;;;;29.70;99.90;;;;;;15608216;22;19971;-85
2023/09/11 16:03:27;;;;;;;;;;;29.70;99.90;;;;;;15629205;22;20636;-82
2023/09/11 16:09:30;;;;;;;;;;;29.80;99.90;;;;;;15611050;22;20002;-83
2023/09/11 16:15:34;;;;;;;;;;;29.70;99.90;;;;;;15605746;22;19929;-83
2023/09/11 16:21:36;;;;;;;;;;;29.60;99.90;;;;;;15606210;22;19929;-82
2023/09/11 16:27:42;;;;;;;;;;;29.30;99.90;;;;;;15606883;22;20348;-82
2023/09/11 16:33:44;;;;;;;;;;;29.10;99.90;;;;;;15592925;22;19919;-85
2023/09/11 16:39:46;;;;;;;;;;;28.90;99.90;;;;;;15607915;22;19923;-84
2023/09/11 16:45:49;;;;;;;;;;;28.80;99.90;;;;;;15629065;22;19927;-84
2023/09/11 16:51:52;;;;;;;;;;;28.70;99.90;;;;;;15635328;22;20397;-84
2023/09/11 16:57:54;;;;;;;;;;;28.50;99.90;;;;;;15639692;22;20408;-84
2023/09/11 17:03:56;;;;;;;;;;;28.10;99.90;;;;;;15612035;22;20348;-83
2023/09/11 17:10:00;;;;;;;;;;;27.80;99.90;;;;;;15637873;22;20288;-83
2023/09/11 17:16:02;;;;;;;;;;;27.60;99.90;;;;;;15613629;22;19929;-83
2023/09/11 17:22:04;;;;;;;;;;;27.40;99.90;;;;;;15609509;22;19945;-83
2023/09/11 17:28:06;;;;;;;;;;;27.10;99.90;;;;;;15638438;22;20367;-83
2023/09/11 17:34:08;;;;;;;;;;;26.70;99.90;;;;;;15608852;22;20110;-83
2023/09/11 17:40:10;;;;;;;;;;;26.40;99.90;;;;;;15607004;22;19922;-82
2023/09/11 17:46:15;;;;;;;;;;;26.20;99.90;;;;;;15634160;22;20414;-81
2023/09/11 17:52:17;;;;;;;;;;;26.10;99.90;;;;;;15622075;22;20256;-81
2023/09/11 17:58:20;;;;;;;;;;;26.00;99.90;;;;;;15610626;22;20268;-81
2023/09/11 18:04:22;;;;;;;;;;;25.80;99.90;;;;;;15601337;22;20250;-81
2023/09/11 18:10:24;;;;;;;;;;;25.70;99.90;;;;;;15632593;22;19930;-81
2023/09/11 18:16:26;;;;;;;;;;;25.50;99.90;;;;;;15603555;22;19923;-82
2023/09/11 18:22:28;;;;;;;;;;;25.40;99.90;;;;;;15634719;22;20556;-82
2023/09/11 18:28:30;;;;;;;;;;;25.40;99.90;;;;;;15609095;22;19930;-81
2023/09/11 18:34:35;;;;;;;;;;;25.40;99.90;;;;;;15594075;22;20404;-81
2023/09/11 18:40:36;;;;;;;;;;;25.20;99.90;;;;;;15608252;22;19949;-81
2023/09/11 18:46:38;;;;;;;;;;;25.00;99.90;;;;;;15632801;22;19933;-81
2023/09/11 18:52:43;;;;;;;;;;;24.90;99.90;;;;;;15635802;22;20268;-83
2023/09/11 18:58:45;;;;;;;;;;;24.80;99.90;;;;;;15605943;22;19923;-82
2023/09/11 19:04:47;;;;;;;;;;;24.70;99.90;;;;;;15608469;22;19997;-82
2023/09/11 19:10:49;;;;;;;;;;;24.60;99.90;;;;;;15611015;22;20321;-82
2023/09/11 19:16:51;;;;;;;;;;;24.60;99.90;;;;;;15606100;22;19930;-81
2023/09/11 19:22:53;;;;;;;;;;;24.50;99.90;;;;;;15636609;22;19930;-81
2023/09/11 19:28:55;;;;;;;;;;;24.40;99.90;;;;;;15618643;22;19919;-81
2023/09/11 19:34:57;;;;;;;;;;;24.50;99.90;;;;;;15609905;22;19929;-82
2023/09/11 19:40:59;;;;;;;;;;;24.40;99.90;;;;;;15609956;22;19934;-82
2023/09/11 19:47:01;;;;;;;;;;;24.30;99.90;;;;;;15630444;22;20564;-82
2023/09/11 19:53:03;;;;;;;;;;;24.20;99.90;;;;;;15609641;22;19923;-82
2023/09/11 19:59:07;;;;;;;;;;;24.20;99.90;;;;;;15610139;22;20256;-82
2023/09/11 20:05:09;;;;;;;;;;;24.20;99.90;;;;;;15609488;22;19926;-82
2023/09/11 20:11:10;;;;;;;;;;;24.10;99.90;;;;;;15613958;22;19930;-82
2023/09/11 20:17:12;;;;;;;;;;;24.10;99.90;;;;;;15607272;22;19923;-82
2023/09/11 20:23:15;;;;;;;;;;;24.10;99.90;;;;;;15636321;22;19918;-81
2023/09/11 20:29:16;;;;;;;;;;;23.90;99.90;;;;;;15631096;22;19987;-81
2023/09/11 20:35:18;;;;;;;;;;;23.90;99.90;;;;;;15638763;22;19923;-81
2023/09/11 20:41:20;;;;;;;;;;;23.80;99.90;;;;;;15664152;22;19963;-81
2023/09/11 20:47:22;;;;;;;;;;;23.70;99.90;;;;;;15662677;22;19923;-81
2023/09/11 20:53:24;;;;;;;;;;;23.70;99.90;;;;;;15623945;22;20002;-81
2023/09/11 20:59:26;;;;;;;;;;;23.50;99.90;;;;;;15612652;22;19922;-80
2023/09/11 21:05:28;;;;;;;;;;;23.20;99.90;;;;;;15632494;22;20248;-81
2023/09/11 21:11:32;;;;;;;;;;;23.20;99.90;;;;;;15598040;22;19930;-82
2023/09/11 21:17:34;;;;;;;;;;;23.20;99.90;;;;;;15602956;22;19926;-82
2023/09/11 21:23:36;;;;;;;;;;;23.20;99.90;;;;;;15602852;22;19923;-82
2023/09/11 21:29:40;;;;;;;;;;;23.20;99.90;;;;;;15609729;22;19923;-82
2023/09/11 21:35:42;;;;;;;;;;;23.30;99.90;;;;;;15602846;22;20240;-82
2023/09/11 21:41:44;;;;;;;;;;;23.30;99.90;;;;;;15624410;22;19994;-81
2023/09/11 21:47:46;;;;;;;;;;;23.30;99.90;;;;;;15618949;22;20012;-82
2023/09/11 21:53:47;;;;;;;;;;;23.10;99.90;;;;;;15600652;22;19923;-82
2023/09/11 22:00:00;;;;;;;;;;;23.00;99.90;;;;;;15604437;22;19946;-82
2023/09/11 22:06:02;;;;;;;;;;;23.00;99.90;;;;;;15604883;22;20257;-82
2023/09/11 22:12:04;;;;;;;;;;;23.00;99.90;;;;;;15634882;22;19923;-82
2023/09/11 22:18:06;;;;;;;;;;;22.90;99.90;;;;;;15599916;22;20333;-82
2023/09/11 22:24:08;;;;;;;;;;;22.90;99.90;;;;;;15599919;22;20249;-81
2023/09/11 22:30:10;;;;;;;;;;;22.80;99.90;;;;;;15608503;22;20276;-81
2023/09/11 22:36:12;;;;;;;;;;;23.00;99.90;;;;;;15621979;22;19923;-81
2023/09/11 22:42:14;;;;;;;;;;;22.90;99.90;;;;;;15599464;22;19937;-81
2023/09/11 22:48:15;;;;;;;;;;;22.80;99.90;;;;;;15602485;22;19945;-82
2023/09/11 22:54:17;;;;;;;;;;;22.50;99.90;;;;;;15630639;22;19929;-84
2023/09/11 23:00:19;;;;;;;;;;;22.20;99.90;;;;;;15603644;22;19970;-86
2023/09/11 23:06:21;;;;;;;;;;;22.20;99.90;;;;;;15635876;22;20000;-85
2023/09/11 23:12:23;;;;;;;;;;;22.20;99.90;;;;;;15604039;22;19923;-85
2023/09/11 23:18:25;;;;;;;;;;;22.00;99.90;;;;;;15603133;22;19923;-85
2023/09/11 23:24:27;;;;;;;;;;;22.10;99.90;;;;;;15607094;22;19930;-84
2023/09/11 23:30:29;;;;;;;;;;;22.10;99.90;;;;;;15612843;22;19934;-84
2023/09/11 23:36:31;;;;;;;;;;;22.20;99.90;;;;;;15623044;22;19919;-84
2023/09/11 23:42:33;;;;;;;;;;;22.10;99.90;;;;;;15610012;22;19923;-82
2023/09/11 23:48:36;;;;;;;;;;;21.70;99.90;;;;;;15589656;22;20499;-83
2023/09/11 23:54:38;;;;;;;;;;;22.00;99.90;;;;;;15614510;22;19927;-83
